Terminal Aerodrome Forecast
Issued by NWS

Home | Current Version | Previous Version | Text Only | Print | Product List | Glossary On
Versions: 1 2 3 4 5 6 7 8 9 10 11 12 13 14 15 16 17 18 19 20 21 22 23 24 25 26 27
000
FTUS46 KLOX 251700 RRA
TAFLAX
TAF
KLAX 251741Z 2518/2624 25005KT P6SM SCT100 SCT200
     FM252100 26013KT P6SM SCT100 BKN200
     FM260300 26008KT P6SM SCT150
     FM260900 30004KT P6SM SCT015
      TEMPO 2610/2614 P6SM BKN015
     FM261600 28004KT 5SM HZ OVC020
     FM262100 26010KT P6SM SCT250=

USA.gov is the U.S. government's official web portal to all federal, state and local government web resources and services.